Terminal Aerodrome Forecast
Issued by NWS

Home | Current Version | Previous Version | Text Only | Print | Product List | Glossary On
Versions: 1 2 3 4 5 6 7 8 9 10 11 12 13 14 15 16 17 18 19 20 21 22 23 24 25 26 27 28 29 30 31 32 33 34 35 36 37 38
000
FTUS43 KGLD 182329
TAFMCK
TAF
KMCK 182329Z 1900/1924 09008KT P6SM FEW250
     FM190100 05010KT P6SM FEW200
     FM190800 01014G22KT P6SM OVC015
     FM190900 01015G23KT P6SM OVC020
     FM191100 01014KT P6SM OVC015
     FM191900 03011KT P6SM BKN040
     FM192100 04011KT P6SM BKN030
     FM192200 04012KT P6SM BKN040=

USA.gov is the U.S. government's official web portal to all federal, state and local government web resources and services.